sensor_id;sensor_type;location;lat;lon;timestamp;pressure;altitude;pressure_sealevel;temperature;humidity
54948;BME280;41113;41.882;12.530;2023-09-30T00:00:35;101500.72;;;20.05;64.64
54948;BME280;41113;41.882;12.530;2023-09-30T00:03:01;101499.19;;;20.02;64.87
54948;BME280;41113;41.882;12.530;2023-09-30T00:05:27;101498.16;;;20.03;65.07
54948;BME280;41113;41.882;12.530;2023-09-30T00:07:52;101505.84;;;20.00;65.54
54948;BME280;41113;41.882;12.530;2023-09-30T00:10:18;101502.28;;;19.99;65.44
54948;BME280;41113;41.882;12.530;2023-09-30T00:12:43;101500.91;;;20.03;65.51
54948;BME280;41113;41.882;12.530;2023-09-30T00:15:09;101500.94;;;19.95;64.99
54948;BME280;41113;41.882;12.530;2023-09-30T00:17:34;101505.72;;;19.93;65.04
54948;BME280;41113;41.882;12.530;2023-09-30T00:20:00;101503.72;;;19.87;65.15
54948;BME280;41113;41.882;12.530;2023-09-30T00:22:25;101504.38;;;19.89;65.40
54948;BME280;41113;41.882;12.530;2023-09-30T00:24:50;101500.28;;;19.93;65.39
54948;BME280;41113;41.882;12.530;2023-09-30T00:27:16;101496.56;;;19.86;66.17
54948;BME280;41113;41.882;12.530;2023-09-30T00:29:41;101498.94;;;19.81;66.46
54948;BME280;41113;41.882;12.530;2023-09-30T00:32:06;101499.78;;;19.81;66.15
54948;BME280;41113;41.882;12.530;2023-09-30T00:34:33;101489.47;;;19.69;66.18
54948;BME280;41113;41.882;12.530;2023-09-30T00:36:59;101500.72;;;19.66;66.02
54948;BME280;41113;41.882;12.530;2023-09-30T00:39:25;101494.56;;;19.72;65.65
54948;BME280;41113;41.882;12.530;2023-09-30T00:41:54;101496.56;;;19.86;65.14
54948;BME280;41113;41.882;12.530;2023-09-30T00:44:20;101492.28;;;19.83;64.43
54948;BME280;41113;41.882;12.530;2023-09-30T00:46:45;101489.41;;;19.77;63.45
54948;BME280;41113;41.882;12.530;2023-09-30T00:49:13;101488.75;;;19.75;63.22
54948;BME280;41113;41.882;12.530;2023-09-30T00:51:39;101485.72;;;19.70;63.53
54948;BME280;41113;41.882;12.530;2023-09-30T00:54:05;101494.88;;;19.85;63.33
54948;BME280;41113;41.882;12.530;2023-09-30T00:56:32;101489.25;;;19.78;63.49
54948;BME280;41113;41.882;12.530;2023-09-30T00:58:58;101482.44;;;19.74;63.86
54948;BME280;41113;41.882;12.530;2023-09-30T01:01:24;101486.91;;;19.67;64.28
54948;BME280;41113;41.882;12.530;2023-09-30T01:03:50;101493.22;;;19.68;64.31
54948;BME280;41113;41.882;12.530;2023-09-30T01:06:15;101492.88;;;19.71;64.37
54948;BME280;41113;41.882;12.530;2023-09-30T01:08:41;101484.22;;;19.59;65.12
54948;BME280;41113;41.882;12.530;2023-09-30T01:11:06;101482.72;;;19.56;65.19
54948;BME280;41113;41.882;12.530;2023-09-30T01:13:36;101487.28;;;19.48;65.54
54948;BME280;41113;41.882;12.530;2023-09-30T01:16:04;101483.56;;;19.41;65.89
54948;BME280;41113;41.882;12.530;2023-09-30T01:18:30;101488.50;;;19.37;65.87
54948;BME280;41113;41.882;12.530;2023-09-30T01:20:55;101483.03;;;19.45;65.28
54948;BME280;41113;41.882;12.530;2023-09-30T01:23:21;101480.34;;;19.37;65.37
54948;BME280;41113;41.882;12.530;2023-09-30T01:25:47;101486.13;;;19.34;65.44
54948;BME280;41113;41.882;12.530;2023-09-30T01:28:12;101481.03;;;19.31;65.23
54948;BME280;41113;41.882;12.530;2023-09-30T01:30:39;101484.59;;;19.32;65.15
54948;BME280;41113;41.882;12.530;2023-09-30T01:33:05;101479.53;;;19.20;65.78
54948;BME280;41113;41.882;12.530;2023-09-30T01:35:32;101480.38;;;19.21;65.50
54948;BME280;41113;41.882;12.530;2023-09-30T01:37:58;101475.94;;;19.12;65.99
54948;BME280;41113;41.882;12.530;2023-09-30T01:40:23;101480.03;;;19.24;65.39
54948;BME280;41113;41.882;12.530;2023-09-30T01:42:49;101483.38;;;19.42;64.71
54948;BME280;41113;41.882;12.530;2023-09-30T01:45:14;101473.88;;;19.38;64.93
54948;BME280;41113;41.882;12.530;2023-09-30T01:47:39;101479.63;;;19.43;64.47
54948;BME280;41113;41.882;12.530;2023-09-30T01:50:05;101475.91;;;19.36;64.91
54948;BME280;41113;41.882;12.530;2023-09-30T01:52:31;101472.13;;;19.45;64.59
54948;BME280;41113;41.882;12.530;2023-09-30T01:54:56;101473.50;;;19.57;64.31
54948;BME280;41113;41.882;12.530;2023-09-30T01:57:22;101470.44;;;19.52;64.67
54948;BME280;41113;41.882;12.530;2023-09-30T01:59:47;101470.44;;;19.61;64.59
54948;BME280;41113;41.882;12.530;2023-09-30T02:02:12;101482.34;;;19.51;64.62
54948;BME280;41113;41.882;12.530;2023-09-30T02:04:38;101475.88;;;19.44;65.03
54948;BME280;41113;41.882;12.530;2023-09-30T02:07:03;101474.03;;;19.37;65.13
54948;BME280;41113;41.882;12.530;2023-09-30T02:09:28;101481.88;;;19.32;65.24
54948;BME280;41113;41.882;12.530;2023-09-30T02:11:54;101467.41;;;19.31;65.29
54948;BME280;41113;41.882;12.530;2023-09-30T02:14:20;101474.25;;;19.27;65.33
54948;BME280;41113;41.882;12.530;2023-09-30T02:16:45;101463.34;;;19.27;65.31
54948;BME280;41113;41.882;12.530;2023-09-30T02:19:11;101471.00;;;19.32;65.05
54948;BME280;41113;41.882;12.530;2023-09-30T02:21:38;101474.19;;;19.43;64.71
54948;BME280;41113;41.882;12.530;2023-09-30T02:24:03;101469.44;;;19.53;64.47
54948;BME280;41113;41.882;12.530;2023-09-30T02:26:32;101478.22;;;19.72;64.02
54948;BME280;41113;41.882;12.530;2023-09-30T02:28:58;101481.06;;;19.78;63.84
54948;BME280;41113;41.882;12.530;2023-09-30T02:31:24;101482.31;;;19.68;63.88
54948;BME280;41113;41.882;12.530;2023-09-30T02:33:49;101488.16;;;19.56;64.45
54948;BME280;41113;41.882;12.530;2023-09-30T02:36:15;101489.81;;;19.49;64.55
54948;BME280;41113;41.882;12.530;2023-09-30T02:38:41;101493.78;;;19.39;64.96
54948;BME280;41113;41.882;12.530;2023-09-30T02:41:07;101494.50;;;19.24;65.33
54948;BME280;41113;41.882;12.530;2023-09-30T02:43:32;101502.50;;;19.18;65.14
54948;BME280;41113;41.882;12.530;2023-09-30T02:45:58;101490.44;;;19.20;64.91
54948;BME280;41113;41.882;12.530;2023-09-30T02:48:23;101486.50;;;19.07;65.18
54948;BME280;41113;41.882;12.530;2023-09-30T02:50:49;101493.00;;;19.06;65.21
54948;BME280;41113;41.882;12.530;2023-09-30T02:53:14;101486.84;;;19.12;64.85
54948;BME280;41113;41.882;12.530;2023-09-30T02:55:40;101486.84;;;19.12;64.75
54948;BME280;41113;41.882;12.530;2023-09-30T02:58:07;101488.56;;;19.05;65.19
54948;BME280;41113;41.882;12.530;2023-09-30T03:00:33;101498.78;;;19.03;65.18
54948;BME280;41113;41.882;12.530;2023-09-30T03:03:01;101496.03;;;19.11;64.71
54948;BME280;41113;41.882;12.530;2023-09-30T03:05:27;101483.94;;;19.30;64.02
54948;BME280;41113;41.882;12.530;2023-09-30T03:07:55;101480.69;;;19.34;63.93
54948;BME280;41113;41.882;12.530;2023-09-30T03:10:21;101480.38;;;19.13;64.59
54948;BME280;41113;41.882;12.530;2023-09-30T03:12:49;101481.59;;;19.02;64.83
54948;BME280;41113;41.882;12.530;2023-09-30T03:15:15;101489.78;;;18.94;64.75
54948;BME280;41113;41.882;12.530;2023-09-30T03:17:41;101489.63;;;18.87;64.95
54948;BME280;41113;41.882;12.530;2023-09-30T03:20:08;101483.16;;;18.88;64.68
54948;BME280;41113;41.882;12.530;2023-09-30T03:22:38;101489.63;;;18.87;64.60
54948;BME280;41113;41.882;12.530;2023-09-30T03:25:03;101485.34;;;18.85;64.75
54948;BME280;41113;41.882;12.530;2023-09-30T03:27:33;101485.53;;;18.91;64.25
54948;BME280;41113;41.882;12.530;2023-09-30T03:29:58;101476.50;;;18.99;64.16
54948;BME280;41113;41.882;12.530;2023-09-30T03:32:23;101479.03;;;19.01;63.96
54948;BME280;41113;41.882;12.530;2023-09-30T03:34:50;101478.38;;;18.90;63.95
54948;BME280;41113;41.882;12.530;2023-09-30T03:37:15;101475.13;;;18.79;64.00
54948;BME280;41113;41.882;12.530;2023-09-30T03:39:40;101473.63;;;18.68;64.13
54948;BME280;41113;41.882;12.530;2023-09-30T03:42:06;101477.00;;;18.54;64.62
54948;BME280;41113;41.882;12.530;2023-09-30T03:44:32;101466.63;;;18.57;64.85
54948;BME280;41113;41.882;12.530;2023-09-30T03:46:57;101472.91;;;18.58;64.67
54948;BME280;41113;41.882;12.530;2023-09-30T03:49:24;101475.47;;;18.59;64.66
54948;BME280;41113;41.882;12.530;2023-09-30T03:51:49;101478.16;;;18.51;64.76
54948;BME280;41113;41.882;12.530;2023-09-30T03:54:16;101469.81;;;18.37;65.30
54948;BME280;41113;41.882;12.530;2023-09-30T03:56:44;101474.91;;;18.23;65.90
54948;BME280;41113;41.882;12.530;2023-09-30T03:59:09;101474.38;;;18.20;65.63
54948;BME280;41113;41.882;12.530;2023-09-30T04:01:35;101472.66;;;18.19;65.80
54948;BME280;41113;41.882;12.530;2023-09-30T04:04:00;101478.66;;;18.22;65.59
54948;BME280;41113;41.882;12.530;2023-09-30T04:06:26;101476.22;;;18.19;65.67
54948;BME280;41113;41.882;12.530;2023-09-30T04:08:51;101477.25;;;18.18;65.89
54948;BME280;41113;41.882;12.530;2023-09-30T04:11:16;101475.75;;;18.24;65.81
54948;BME280;41113;41.882;12.530;2023-09-30T04:13:46;101476.22;;;18.11;66.18
54948;BME280;41113;41.882;12.530;2023-09-30T04:16:12;101480.13;;;18.17;65.89
54948;BME280;41113;41.882;12.530;2023-09-30T04:18:37;101479.44;;;18.15;65.86
54948;BME280;41113;41.882;12.530;2023-09-30T04:21:03;101480.63;;;18.04;66.43
54948;BME280;41113;41.882;12.530;2023-09-30T04:23:29;101485.78;;;18.23;65.65
54948;BME280;41113;41.882;12.530;2023-09-30T04:25:54;101491.53;;;18.20;65.70
54948;BME280;41113;41.882;12.530;2023-09-30T04:28:19;101485.38;;;18.10;66.27
54948;BME280;41113;41.882;12.530;2023-09-30T04:30:49;101495.25;;;18.19;65.54
54948;BME280;41113;41.882;12.530;2023-09-30T04:33:15;101501.03;;;18.16;65.98
54948;BME280;41113;41.882;12.530;2023-09-30T04:35:42;101511.53;;;18.03;66.32
54948;BME280;41113;41.882;12.530;2023-09-30T04:38:08;101509.69;;;18.03;66.41
54948;BME280;41113;41.882;12.530;2023-09-30T04:40:34;101502.25;;;18.22;65.63
54948;BME280;41113;41.882;12.530;2023-09-30T04:42:59;101509.25;;;18.41;65.09
54948;BME280;41113;41.882;12.530;2023-09-30T04:45:25;101513.34;;;18.37;65.26
54948;BME280;41113;41.882;12.530;2023-09-30T04:47:52;101509.88;;;18.18;65.78
54948;BME280;41113;41.882;12.530;2023-09-30T04:50:18;101515.09;;;17.95;66.78
54948;BME280;41113;41.882;12.530;2023-09-30T04:52:47;101512.31;;;17.87;67.19
54948;BME280;41113;41.882;12.530;2023-09-30T04:55:13;101514.91;;;17.89;67.26
54948;BME280;41113;41.882;12.530;2023-09-30T04:57:42;101503.25;;;17.70;67.42
54948;BME280;41113;41.882;12.530;2023-09-30T05:00:11;101511.06;;;17.73;67.36
54948;BME280;41113;41.882;12.530;2023-09-30T05:02:37;101510.84;;;17.93;66.58
54948;BME280;41113;41.882;12.530;2023-09-30T05:05:03;101517.81;;;18.03;66.57
54948;BME280;41113;41.882;12.530;2023-09-30T05:07:31;101519.31;;;17.90;66.93
54948;BME280;41113;41.882;12.530;2023-09-30T05:09:57;101528.31;;;17.64;68.10
54948;BME280;41113;41.882;12.530;2023-09-30T05:12:23;101526.63;;;17.63;68.10
54948;BME280;41113;41.882;12.530;2023-09-30T05:14:48;101522.91;;;17.64;67.96
54948;BME280;41113;41.882;12.530;2023-09-30T05:17:13;101522.28;;;17.70;67.84
54948;BME280;41113;41.882;12.530;2023-09-30T05:19:39;101520.97;;;17.83;67.42
54948;BME280;41113;41.882;12.530;2023-09-30T05:22:04;101522.47;;;17.77;67.86
54948;BME280;41113;41.882;12.530;2023-09-30T05:24:30;101526.00;;;17.69;68.18
54948;BME280;41113;41.882;12.530;2023-09-30T05:26:56;101517.88;;;17.78;67.86
54948;BME280;41113;41.882;12.530;2023-09-30T05:29:22;101520.00;;;17.92;67.31
54948;BME280;41113;41.882;12.530;2023-09-30T05:31:47;101518.31;;;17.91;67.22
54948;BME280;41113;41.882;12.530;2023-09-30T05:34:13;101518.53;;;18.14;66.57
54948;BME280;41113;41.882;12.530;2023-09-30T05:36:38;101529.81;;;18.43;65.31
54948;BME280;41113;41.882;12.530;2023-09-30T05:39:04;101526.47;;;18.57;64.54
54948;BME280;41113;41.882;12.530;2023-09-30T05:41:33;101536.97;;;18.36;64.90
54948;BME280;41113;41.882;12.530;2023-09-30T05:43:58;101534.41;;;18.43;64.96
54948;BME280;41113;41.882;12.530;2023-09-30T05:46:25;101534.28;;;18.60;64.28
54948;BME280;41113;41.882;12.530;2023-09-30T05:48:50;101535.53;;;18.66;63.98
54948;BME280;41113;41.882;12.530;2023-09-30T05:51:15;101542.31;;;18.70;63.95
54948;BME280;41113;41.882;12.530;2023-09-30T05:53:41;101544.91;;;18.88;63.44
54948;BME280;41113;41.882;12.530;2023-09-30T05:56:08;101539.44;;;18.96;63.10
54948;BME280;41113;41.882;12.530;2023-09-30T05:58:36;101538.41;;;18.81;63.30
54948;BME280;41113;41.882;12.530;2023-09-30T06:01:07;101539.59;;;18.70;63.85
54948;BME280;41113;41.882;12.530;2023-09-30T06:03:32;101539.94;;;18.75;63.81
54948;BME280;41113;41.882;12.530;2023-09-30T06:05:58;101544.38;;;18.84;63.46
54948;BME280;41113;41.882;12.530;2023-09-30T06:08:25;101539.63;;;18.86;63.39
54948;BME280;41113;41.882;12.530;2023-09-30T06:10:50;101534.00;;;18.88;63.53
54948;BME280;41113;41.882;12.530;2023-09-30T06:13:15;101539.44;;;18.96;63.34
54948;BME280;41113;41.882;12.530;2023-09-30T06:15:42;101544.22;;;18.94;63.34
54948;BME280;41113;41.882;12.530;2023-09-30T06:18:09;101542.34;;;19.03;62.98
54948;BME280;41113;41.882;12.530;2023-09-30T06:20:35;101555.25;;;19.09;62.77
54948;BME280;41113;41.882;12.530;2023-09-30T06:23:01;101549.47;;;19.04;63.03
54948;BME280;41113;41.882;12.530;2023-09-30T06:25:26;101560.72;;;18.92;63.40
54948;BME280;41113;41.882;12.530;2023-09-30T06:27:53;101556.97;;;18.93;63.36
54948;BME280;41113;41.882;12.530;2023-09-30T06:30:22;101563.78;;;18.89;63.59
54948;BME280;41113;41.882;12.530;2023-09-30T06:32:55;101563.59;;;18.83;63.96
54948;BME280;41113;41.882;12.530;2023-09-30T06:35:20;101554.25;;;18.93;63.56
54948;BME280;41113;41.882;12.530;2023-09-30T06:37:45;101555.78;;;19.04;63.17
54948;BME280;41113;41.882;12.530;2023-09-30T06:40:11;101551.88;;;19.23;62.86
54948;BME280;41113;41.882;12.530;2023-09-30T06:42:37;101555.94;;;19.35;62.49
54948;BME280;41113;41.882;12.530;2023-09-30T06:45:05;101554.72;;;19.38;62.42
54948;BME280;41113;41.882;12.530;2023-09-30T06:47:34;101549.47;;;19.36;62.58
54948;BME280;41113;41.882;12.530;2023-09-30T06:50:02;101550.81;;;19.65;61.77
54948;BME280;41113;41.882;12.530;2023-09-30T06:52:39;101541.63;;;19.57;61.63
54948;BME280;41113;41.882;12.530;2023-09-30T06:55:06;101558.31;;;19.38;62.27
54948;BME280;41113;41.882;12.530;2023-09-30T06:57:33;101550.81;;;19.40;62.08
54948;BME280;41113;41.882;12.530;2023-09-30T06:59:58;101552.50;;;19.49;61.94
54948;BME280;41113;41.882;12.530;2023-09-30T07:02:24;101559.47;;;19.68;61.64
54948;BME280;41113;41.882;12.530;2023-09-30T07:04:49;101558.28;;;19.71;61.27
54948;BME280;41113;41.882;12.530;2023-09-30T07:07:15;101554.88;;;19.69;61.33
54948;BME280;41113;41.882;12.530;2023-09-30T07:09:40;101557.56;;;19.85;60.95
54948;BME280;41113;41.882;12.530;2023-09-30T07:12:06;101569.81;;;19.81;60.86
54948;BME280;41113;41.882;12.530;2023-09-30T07:14:31;101568.63;;;19.83;60.90
54948;BME280;41113;41.882;12.530;2023-09-30T07:16:59;101573.50;;;20.04;60.56
54948;BME280;41113;41.882;12.530;2023-09-30T07:19:25;101571.75;;;20.11;60.27
54948;BME280;41113;41.882;12.530;2023-09-30T07:21:50;101575.44;;;20.27;59.98
54948;BME280;41113;41.882;12.530;2023-09-30T07:24:16;101576.59;;;20.40;59.68
54948;BME280;41113;41.882;12.530;2023-09-30T07:26:43;101578.84;;;20.29;59.58
54948;BME280;41113;41.882;12.530;2023-09-30T07:29:09;101580.59;;;20.22;60.04
54948;BME280;41113;41.882;12.530;2023-09-30T07:31:35;101575.09;;;20.30;59.92
54948;BME280;41113;41.882;12.530;2023-09-30T07:34:01;101578.81;;;20.37;59.65
54948;BME280;41113;41.882;12.530;2023-09-30T07:36:26;101585.06;;;20.06;60.16
54948;BME280;41113;41.882;12.530;2023-09-30T07:38:52;101590.78;;;20.28;59.72
54948;BME280;41113;41.882;12.530;2023-09-30T07:41:18;101586.66;;;20.40;59.41
54948;BME280;41113;41.882;12.530;2023-09-30T07:43:43;101598.84;;;20.21;59.82
54948;BME280;41113;41.882;12.530;2023-09-30T07:46:09;101594.97;;;20.07;60.20
54948;BME280;41113;41.882;12.530;2023-09-30T07:48:34;101593.34;;;20.29;59.67
54948;BME280;41113;41.882;12.530;2023-09-30T07:51:00;101597.53;;;20.48;59.10
54948;BME280;41113;41.882;12.530;2023-09-30T07:53:26;101596.09;;;20.60;58.86
54948;BME280;41113;41.882;12.530;2023-09-30T07:55:52;101611.09;;;20.64;58.85
54948;BME280;41113;41.882;12.530;2023-09-30T07:58:19;101609.03;;;20.66;58.66
54948;BME280;41113;41.882;12.530;2023-09-30T08:00:45;101619.09;;;20.66;58.54
54948;BME280;41113;41.882;12.530;2023-09-30T08:03:10;101620.94;;;20.73;58.64
54948;BME280;41113;41.882;12.530;2023-09-30T08:05:37;101609.28;;;20.79;58.45
54948;BME280;41113;41.882;12.530;2023-09-30T08:08:02;101610.66;;;20.84;58.28
54948;BME280;41113;41.882;12.530;2023-09-30T08:10:29;101626.50;;;20.80;58.33
54948;BME280;41113;41.882;12.530;2023-09-30T08:12:55;101624.47;;;20.82;58.14
54948;BME280;41113;41.882;12.530;2023-09-30T08:15:23;101613.31;;;20.92;58.21
54948;BME280;41113;41.882;12.530;2023-09-30T08:17:48;101622.41;;;21.07;57.88
54948;BME280;41113;41.882;12.530;2023-09-30T08:20:13;101626.91;;;21.23;57.75
54948;BME280;41113;41.882;12.530;2023-09-30T08:22:39;101622.44;;;21.30;57.55
54948;BME280;41113;41.882;12.530;2023-09-30T08:25:06;101621.44;;;21.46;57.50
54948;BME280;41113;41.882;12.530;2023-09-30T08:27:32;101618.84;;;21.52;57.39
54948;BME280;41113;41.882;12.530;2023-09-30T08:29:57;101627.97;;;21.59;56.74
54948;BME280;41113;41.882;12.530;2023-09-30T08:32:23;101612.06;;;21.63;56.55
54948;BME280;41113;41.882;12.530;2023-09-30T08:34:48;101613.94;;;21.77;56.20
54948;BME280;41113;41.882;12.530;2023-09-30T08:37:14;101611.81;;;21.87;56.22
54948;BME280;41113;41.882;12.530;2023-09-30T08:39:40;101608.91;;;22.03;55.75
54948;BME280;41113;41.882;12.530;2023-09-30T08:42:15;101608.53;;;22.21;55.11
54948;BME280;41113;41.882;12.530;2023-09-30T08:44:45;101608.56;;;22.43;54.78
54948;BME280;41113;41.882;12.530;2023-09-30T08:47:11;101608.31;;;22.52;53.42
54948;BME280;41113;41.882;12.530;2023-09-30T08:49:40;101607.78;;;22.63;53.26
54948;BME280;41113;41.882;12.530;2023-09-30T08:52:06;101606.06;;;22.77;53.60
54948;BME280;41113;41.882;12.530;2023-09-30T08:54:34;101607.84;;;22.85;53.22
54948;BME280;41113;41.882;12.530;2023-09-30T08:57:00;101600.88;;;23.04;53.30
54948;BME280;41113;41.882;12.530;2023-09-30T08:59:26;101602.38;;;23.27;52.55
54948;BME280;41113;41.882;12.530;2023-09-30T09:01:52;101604.47;;;23.25;51.32
54948;BME280;41113;41.882;12.530;2023-09-30T09:04:18;101598.81;;;23.55;51.91
54948;BME280;41113;41.882;12.530;2023-09-30T09:06:43;101601.66;;;23.68;50.76
54948;BME280;41113;41.882;12.530;2023-09-30T09:09:16;101600.09;;;23.80;50.69
54948;BME280;41113;41.882;12.530;2023-09-30T09:11:43;101600.16;;;23.94;51.23
54948;BME280;41113;41.882;12.530;2023-09-30T09:14:09;101607.06;;;24.17;50.96
54948;BME280;41113;41.882;12.530;2023-09-30T09:16:34;101604.00;;;24.06;50.29
54948;BME280;41113;41.882;12.530;2023-09-30T09:19:13;101600.94;;;24.22;50.50
54948;BME280;41113;41.882;12.530;2023-09-30T09:22:02;101606.09;;;24.32;49.81
54948;BME280;41113;41.882;12.530;2023-09-30T09:24:30;101612.09;;;24.48;50.44
54948;BME280;41113;41.882;12.530;2023-09-30T09:29:32;101590.34;;;24.54;49.72
54948;BME280;41113;41.882;12.530;2023-09-30T09:34:36;101585.19;;;24.98;49.56
54948;BME280;41113;41.882;12.530;2023-09-30T09:37:21;101584.38;;;25.04;48.47
54948;BME280;41113;41.882;12.530;2023-09-30T09:39:56;101586.06;;;25.05;48.05
54948;BME280;41113;41.882;12.530;2023-09-30T09:42:32;101576.28;;;24.96;48.92
54948;BME280;41113;41.882;12.530;2023-09-30T09:45:02;101575.91;;;25.06;48.77
54948;BME280;41113;41.882;12.530;2023-09-30T09:47:29;101570.38;;;24.99;49.04
54948;BME280;41113;41.882;12.530;2023-09-30T09:49:56;101563.44;;;25.10;48.86
54948;BME280;41113;41.882;12.530;2023-09-30T09:52:23;101566.59;;;25.27;48.79
54948;BME280;41113;41.882;12.530;2023-09-30T09:54:50;101561.97;;;25.40;48.59
54948;BME280;41113;41.882;12.530;2023-09-30T09:57:19;101555.19;;;25.43;48.68
54948;BME280;41113;41.882;12.530;2023-09-30T09:59:45;101564.47;;;25.29;48.56
54948;BME280;41113;41.882;12.530;2023-09-30T10:02:14;101554.97;;;25.25;48.51
54948;BME280;41113;41.882;12.530;2023-09-30T10:04:44;101556.88;;;25.37;48.38
54948;BME280;41113;41.882;12.530;2023-09-30T10:07:20;101545.22;;;25.49;47.64
54948;BME280;41113;41.882;12.530;2023-09-30T10:09:49;101545.69;;;25.39;47.99
54948;BME280;41113;41.882;12.530;2023-09-30T10:12:17;101542.91;;;25.46;48.31
54948;BME280;41113;41.882;12.530;2023-09-30T10:14:43;101543.72;;;25.59;48.33
54948;BME280;41113;41.882;12.530;2023-09-30T10:17:09;101539.94;;;25.73;48.32
54948;BME280;41113;41.882;12.530;2023-09-30T10:19:35;101547.50;;;25.85;48.05
54948;BME280;41113;41.882;12.530;2023-09-30T10:24:46;101541.94;;;25.98;48.18
54948;BME280;41113;41.882;12.530;2023-09-30T10:35:41;101538.94;;;26.13;47.62
54948;BME280;41113;41.882;12.530;2023-09-30T10:40:51;101535.75;;;26.16;47.84
54948;BME280;41113;41.882;12.530;2023-09-30T10:43:33;101537.88;;;26.14;46.59
54948;BME280;41113;41.882;12.530;2023-09-30T10:45:59;101538.91;;;26.19;47.78
54948;BME280;41113;41.882;12.530;2023-09-30T10:50:55;101534.88;;;26.22;47.04
54948;BME280;41113;41.882;12.530;2023-09-30T10:53:22;101528.75;;;26.20;47.21
54948;BME280;41113;41.882;12.530;2023-09-30T10:55:54;101529.63;;;26.14;46.64
54948;BME280;41113;41.882;12.530;2023-09-30T10:58:20;101529.59;;;26.20;46.75
54948;BME280;41113;41.882;12.530;2023-09-30T11:00:55;101528.34;;;26.16;44.07
54948;BME280;41113;41.882;12.530;2023-09-30T11:03:21;101523.47;;;26.18;46.46
54948;BME280;41113;41.882;12.530;2023-09-30T11:05:48;101523.81;;;26.28;46.45
54948;BME280;41113;41.882;12.530;2023-09-30T11:08:15;101524.03;;;26.33;46.28
54948;BME280;41113;41.882;12.530;2023-09-30T11:10:47;101514.06;;;26.32;44.96
54948;BME280;41113;41.882;12.530;2023-09-30T11:13:13;101519.81;;;26.38;46.14
54948;BME280;41113;41.882;12.530;2023-09-30T11:15:38;101509.59;;;26.45;46.04
54948;BME280;41113;41.882;12.530;2023-09-30T11:18:17;101515.53;;;26.42;43.48
54948;BME280;41113;41.882;12.530;2023-09-30T11:20:43;101504.75;;;26.33;43.04
54948;BME280;41113;41.882;12.530;2023-09-30T11:23:10;101510.91;;;26.35;45.55
54948;BME280;41113;41.882;12.530;2023-09-30T11:25:36;101510.69;;;26.30;45.50
54948;BME280;41113;41.882;12.530;2023-09-30T11:28:18;101505.00;;;26.25;43.68
54948;BME280;41113;41.882;12.530;2023-09-30T11:31:01;101516.66;;;26.21;43.63
54948;BME280;41113;41.882;12.530;2023-09-30T11:33:31;101514.75;;;26.21;45.21
54948;BME280;41113;41.882;12.530;2023-09-30T11:36:03;101517.50;;;26.34;45.26
54948;BME280;41113;41.882;12.530;2023-09-30T11:38:29;101510.47;;;26.39;45.05
54948;BME280;41113;41.882;12.530;2023-09-30T11:41:02;101518.75;;;26.39;45.51
54948;BME280;41113;41.882;12.530;2023-09-30T11:43:30;101509.41;;;26.40;45.16
54948;BME280;41113;41.882;12.530;2023-09-30T11:46:09;101504.53;;;26.42;45.23
54948;BME280;41113;41.882;12.530;2023-09-30T11:48:35;101501.16;;;26.40;45.57
54948;BME280;41113;41.882;12.530;2023-09-30T11:51:02;101496.09;;;26.37;45.79
54948;BME280;41113;41.882;12.530;2023-09-30T11:53:32;101495.25;;;26.36;44.33
54948;BME280;41113;41.882;12.530;2023-09-30T11:56:00;101489.97;;;26.34;44.77
54948;BME280;41113;41.882;12.530;2023-09-30T11:58:28;101488.00;;;26.42;45.08
54948;BME280;41113;41.882;12.530;2023-09-30T12:00:54;101484.19;;;26.43;44.84
54948;BME280;41113;41.882;12.530;2023-09-30T12:03:22;101484.19;;;26.43;44.80
54948;BME280;41113;41.882;12.530;2023-09-30T12:05:48;101484.19;;;26.43;44.71
54948;BME280;41113;41.882;12.530;2023-09-30T12:08:13;101483.28;;;26.49;44.48
54948;BME280;41113;41.882;12.530;2023-09-30T12:10:40;101476.53;;;26.45;44.15
54948;BME280;41113;41.882;12.530;2023-09-30T12:13:05;101473.16;;;26.43;43.93
54948;BME280;41113;41.882;12.530;2023-09-30T12:15:30;101472.72;;;26.46;44.39
54948;BME280;41113;41.882;12.530;2023-09-30T12:17:56;101473.09;;;26.49;44.32
54948;BME280;41113;41.882;12.530;2023-09-30T12:20:22;101468.03;;;26.46;43.95
54948;BME280;41113;41.882;12.530;2023-09-30T12:22:48;101466.31;;;26.52;44.54
54948;BME280;41113;41.882;12.530;2023-09-30T12:25:15;101461.88;;;26.51;44.50
54948;BME280;41113;41.882;12.530;2023-09-30T12:27:41;101458.03;;;26.52;44.71
54948;BME280;41113;41.882;12.530;2023-09-30T12:30:07;101457.75;;;26.60;44.63
54948;BME280;41113;41.882;12.530;2023-09-30T12:32:32;101446.50;;;26.61;44.75
54948;BME280;41113;41.882;12.530;2023-09-30T12:34:58;101435.09;;;26.58;44.95
54948;BME280;41113;41.882;12.530;2023-09-30T12:37:23;101431.50;;;26.57;44.87
54948;BME280;41113;41.882;12.530;2023-09-30T12:39:48;101437.00;;;26.57;44.93
54948;BME280;41113;41.882;12.530;2023-09-30T12:42:14;101434.03;;;26.59;44.76
54948;BME280;41113;41.882;12.530;2023-09-30T12:44:41;101441.19;;;26.66;45.06
54948;BME280;41113;41.882;12.530;2023-09-30T12:47:06;101433.59;;;26.62;45.46
54948;BME280;41113;41.882;12.530;2023-09-30T12:49:33;101445.00;;;26.65;45.22
54948;BME280;41113;41.882;12.530;2023-09-30T12:51:58;101444.16;;;26.65;45.18
54948;BME280;41113;41.882;12.530;2023-09-30T12:54:24;101432.97;;;26.60;45.18
54948;BME280;41113;41.882;12.530;2023-09-30T12:56:50;101431.44;;;26.64;45.29
54948;BME280;41113;41.882;12.530;2023-09-30T12:59:16;101435.47;;;26.68;45.23